createdAt,value
2018-09-29T00:00:48.023Z,17.50
2018-09-29T00:03:22.233Z,17.40
2018-09-29T00:05:57.186Z,17.40
2018-09-29T00:08:31.492Z,17.30
2018-09-29T00:11:05.721Z,17.30
2018-09-29T00:13:40.037Z,17.30
2018-09-29T00:16:14.299Z,17.20
2018-09-29T00:18:49.348Z,17.20
2018-09-29T00:21:24.630Z,17.00
2018-09-29T00:23:58.982Z,17.00
2018-09-29T00:26:33.297Z,16.80
2018-09-29T00:29:07.635Z,16.80
2018-09-29T00:31:41.757Z,16.90
2018-09-29T00:34:16.055Z,16.80
2018-09-29T00:36:50.339Z,16.70
2018-09-29T00:39:24.799Z,16.70
2018-09-29T00:41:59.713Z,16.50
2018-09-29T00:44:33.985Z,16.50
2018-09-29T00:47:09.024Z,16.40
2018-09-29T00:49:43.982Z,16.40
2018-09-29T00:52:19.038Z,16.30
2018-09-29T00:54:54.079Z,16.30
2018-09-29T00:57:28.333Z,16.30
2018-09-29T01:00:02.566Z,16.20
2018-09-29T01:02:38.291Z,16.10
2018-09-29T01:05:12.452Z,16.20
2018-09-29T01:07:46.762Z,16.10
2018-09-29T01:10:21.019Z,16.10
2018-09-29T01:12:56.016Z,16.10
2018-09-29T01:15:30.174Z,16.10
2018-09-29T01:18:04.722Z,16.00
2018-09-29T01:20:39.565Z,15.90
2018-09-29T01:23:13.900Z,15.90
2018-09-29T01:25:48.912Z,15.80
2018-09-29T01:28:23.047Z,15.80
2018-09-29T01:30:57.424Z,15.80
2018-09-29T01:33:32.453Z,15.70
2018-09-29T01:36:06.737Z,15.70
2018-09-29T01:38:41.320Z,15.60
2018-09-29T01:41:15.549Z,15.60
2018-09-29T01:43:49.858Z,15.60
2018-09-29T01:46:24.158Z,15.60
2018-09-29T01:48:58.458Z,15.60
2018-09-29T01:51:32.706Z,15.50
2018-09-29T01:54:07.953Z,15.50
2018-09-29T01:56:42.882Z,15.40
2018-09-29T01:59:17.183Z,15.50
2018-09-29T02:01:51.419Z,15.40
2018-09-29T02:04:25.721Z,15.30
2018-09-29T02:07:00.091Z,15.20
2018-09-29T02:09:34.349Z,15.20
2018-09-29T02:12:09.390Z,15.20
2018-09-29T02:14:44.405Z,15.20
2018-09-29T02:17:18.500Z,15.10
2018-09-29T02:19:52.719Z,15.10
2018-09-29T02:22:28.019Z,15.00
2018-09-29T02:25:02.270Z,15.00
2018-09-29T02:27:36.577Z,14.90
2018-09-29T02:30:11.647Z,14.90
2018-09-29T02:32:45.865Z,14.90
2018-09-29T02:35:20.103Z,14.80
2018-09-29T02:37:54.702Z,14.70
2018-09-29T02:40:28.935Z,14.70
2018-09-29T02:43:03.330Z,14.70
2018-09-29T02:45:37.622Z,14.70
2018-09-29T02:48:12.038Z,14.70
2018-09-29T02:50:46.333Z,14.70
2018-09-29T02:53:20.542Z,14.70
2018-09-29T02:55:54.805Z,14.60
2018-09-29T02:58:29.065Z,14.60
2018-09-29T03:01:04.083Z,14.50
2018-09-29T03:03:39.195Z,14.40
2018-09-29T03:06:13.530Z,14.40
2018-09-29T03:08:47.611Z,14.40
2018-09-29T03:11:21.967Z,14.40
2018-09-29T03:13:56.360Z,14.40
2018-09-29T03:16:30.660Z,14.40
2018-09-29T03:19:04.970Z,14.30
2018-09-29T03:21:39.950Z,14.20
2018-09-29T03:24:14.229Z,14.20
2018-09-29T03:26:48.698Z,14.20
2018-09-29T03:29:22.987Z,14.10
2018-09-29T03:31:57.617Z,14.10
2018-09-29T03:34:31.634Z,14.00
2018-09-29T03:42:39.359Z,13.90
2018-09-29T03:45:17.372Z,13.90
2018-09-29T03:47:55.492Z,13.80
2018-09-29T03:50:33.947Z,13.80
2018-09-29T03:53:16.112Z,13.70
2018-09-29T03:56:02.118Z,13.70
2018-09-29T03:58:44.622Z,13.70
2018-09-29T04:01:22.435Z,13.60
2018-09-29T04:04:01.041Z,13.60
2018-09-29T04:06:44.282Z,13.50
2018-09-29T04:09:21.185Z,13.50
2018-09-29T04:12:15.967Z,13.50
2018-09-29T04:14:58.893Z,13.30
2018-09-29T04:17:39.195Z,13.30
2018-09-29T04:20:19.543Z,13.20
2018-09-29T04:22:59.384Z,13.10
2018-09-29T04:25:36.758Z,13.10
2018-09-29T04:28:13.596Z,13.10
2018-09-29T04:30:55.716Z,12.90
2018-09-29T04:33:46.183Z,12.90
2018-09-29T04:36:29.227Z,12.80
2018-09-29T04:39:07.934Z,12.80
2018-09-29T04:41:46.122Z,12.80
2018-09-29T04:44:22.962Z,12.80
2018-09-29T04:47:01.244Z,12.60
2018-09-29T04:49:37.303Z,12.60
2018-09-29T04:52:15.157Z,12.50
2018-09-29T04:54:58.579Z,12.20
2018-09-29T04:57:38.719Z,12.30
2018-09-29T05:00:36.262Z,12.30
2018-09-29T05:03:14.858Z,12.20
2018-09-29T05:05:53.982Z,12.10
2018-09-29T05:08:38.344Z,11.70
2018-09-29T05:11:22.567Z,11.60
2018-09-29T05:14:03.537Z,11.70
2018-09-29T05:16:45.947Z,11.60
2018-09-29T05:19:26.836Z,11.60
2018-09-29T05:22:08.551Z,11.60
2018-09-29T05:24:54.722Z,11.60
2018-09-29T05:27:40.096Z,11.50
2018-09-29T05:30:20.871Z,11.40
2018-09-29T05:33:03.996Z,11.40
2018-09-29T05:35:42.752Z,11.50
2018-09-29T05:38:21.431Z,11.30
2018-09-29T05:41:00.056Z,11.20
2018-09-29T05:46:25.628Z,11.40
2018-09-29T05:49:05.224Z,11.40
2018-09-29T05:51:39.944Z,11.40
2018-09-29T05:54:17.952Z,11.50
2018-09-29T05:57:01.639Z,11.50
2018-09-29T05:59:46.219Z,11.50
2018-09-29T06:02:24.837Z,11.50
2018-09-29T06:05:09.459Z,11.70
2018-09-29T06:07:52.587Z,11.70
2018-09-29T06:10:29.785Z,11.80
2018-09-29T06:13:08.339Z,11.90
2018-09-29T06:15:42.480Z,12.00
2018-09-29T06:18:16.787Z,12.20
2018-09-29T06:20:53.004Z,12.30
2018-09-29T06:23:28.492Z,12.30
2018-09-29T06:26:03.724Z,12.30
2018-09-29T06:28:38.234Z,12.40
2018-09-29T06:31:13.876Z,12.40
2018-09-29T06:33:49.879Z,12.50
2018-09-29T06:39:25.986Z,12.70
2018-09-29T06:45:00.138Z,12.80
2018-09-29T06:47:34.974Z,12.90
2018-09-29T06:50:11.997Z,13.00
2018-09-29T06:52:41.682Z,13.00
2018-09-29T06:55:09.902Z,13.20
2018-09-29T06:57:38.175Z,13.30
2018-09-29T07:00:06.449Z,13.50
2018-09-29T07:02:34.790Z,13.50
2018-09-29T07:05:03.031Z,13.50
2018-09-29T07:07:31.283Z,13.50
2018-09-29T07:09:59.535Z,13.70
2018-09-29T07:12:27.819Z,13.80
2018-09-29T07:14:56.066Z,13.90
2018-09-29T07:17:24.760Z,13.90
2018-09-29T07:19:53.056Z,14.10
2018-09-29T07:22:21.290Z,14.40
2018-09-29T07:24:49.739Z,14.50
2018-09-29T07:27:17.969Z,14.60
2018-09-29T07:29:46.246Z,14.60
2018-09-29T07:32:14.610Z,14.60
2018-09-29T07:34:42.858Z,14.60
2018-09-29T07:37:11.882Z,14.80
2018-09-29T07:39:40.139Z,14.80
2018-09-29T07:42:08.384Z,14.90
2018-09-29T07:44:36.674Z,15.10
2018-09-29T07:47:05.689Z,15.20
2018-09-29T07:49:33.982Z,15.20
2018-09-29T07:52:02.251Z,15.40
2018-09-29T07:54:30.563Z,15.60
2018-09-29T07:56:58.830Z,15.80
2018-09-29T07:59:27.846Z,16.10
2018-09-29T08:01:56.880Z,16.20
2018-09-29T08:04:25.137Z,16.20
2018-09-29T08:06:54.150Z,16.50
2018-09-29T08:09:22.419Z,16.40
2018-09-29T08:11:50.679Z,16.50
2018-09-29T08:14:19.722Z,16.80
2018-09-29T08:16:47.990Z,16.80
2018-09-29T08:19:16.310Z,17.00
2018-09-29T08:21:45.316Z,17.20
2018-09-29T08:24:13.583Z,17.10
2018-09-29T08:26:42.624Z,17.20
2018-09-29T08:29:10.889Z,17.20
2018-09-29T08:31:39.138Z,17.40
2018-09-29T08:34:07.918Z,17.40
2018-09-29T08:36:37.036Z,17.40
2018-09-29T08:39:06.329Z,17.40
2018-09-29T08:41:34.592Z,17.40
2018-09-29T08:44:03.667Z,17.60
2018-09-29T08:46:31.921Z,17.60
2018-09-29T08:49:00.902Z,17.60
2018-09-29T08:51:29.143Z,17.60
2018-09-29T08:53:57.451Z,17.80
2018-09-29T08:56:25.768Z,17.80
2018-09-29T08:58:54.407Z,17.80
2018-09-29T09:01:22.706Z,18.00
2018-09-29T09:03:51.040Z,18.20
2018-09-29T09:08:54.239Z,18.10
2018-09-29T09:11:22.519Z,18.10
2018-09-29T09:13:50.912Z,18.00
2018-09-29T09:16:19.097Z,18.10
2018-09-29T09:18:47.375Z,18.20
2018-09-29T09:21:15.618Z,18.20
2018-09-29T09:23:43.962Z,18.20
2018-09-29T09:26:12.725Z,18.30
2018-09-29T09:28:41.016Z,18.50
2018-09-29T09:31:10.042Z,18.50
2018-09-29T09:33:38.307Z,18.60
2018-09-29T09:36:06.564Z,18.60
2018-09-29T09:38:35.596Z,18.80
2018-09-29T09:41:03.867Z,18.70
2018-09-29T09:43:32.206Z,18.80
2018-09-29T09:46:00.407Z,18.90
2018-09-29T09:48:29.417Z,19.10
2018-09-29T09:50:57.750Z,19.10
2018-09-29T09:53:26.064Z,19.00
2018-09-29T09:55:54.353Z,19.00
2018-09-29T09:58:22.615Z,19.10
2018-09-29T10:00:50.866Z,19.20
2018-09-29T10:03:19.146Z,19.20
2018-09-29T10:05:48.155Z,19.20
2018-09-29T10:08:16.453Z,19.20
2018-09-29T10:10:44.698Z,19.20
2018-09-29T10:13:12.939Z,19.40
2018-09-29T10:15:41.972Z,19.40
2018-09-29T10:18:10.253Z,19.40
2018-09-29T10:20:38.513Z,19.50
2018-09-29T10:23:06.795Z,19.60
2018-09-29T10:25:35.079Z,19.60
2018-09-29T10:28:03.343Z,19.70
2018-09-29T10:30:31.608Z,19.70
2018-09-29T10:32:59.893Z,19.70
2018-09-29T10:35:28.228Z,19.70
2018-09-29T10:37:56.532Z,20.00
2018-09-29T10:40:25.543Z,20.00
2018-09-29T10:42:53.811Z,20.00
2018-09-29T10:45:22.067Z,20.10
2018-09-29T10:47:51.118Z,20.10
2018-09-29T10:50:19.357Z,20.10
2018-09-29T10:52:47.625Z,20.20
2018-09-29T10:55:16.829Z,20.30
2018-09-29T10:57:45.165Z,20.30
2018-09-29T11:00:14.141Z,20.30
2018-09-29T11:02:42.420Z,20.30
2018-09-29T11:05:10.854Z,20.40
2018-09-29T11:07:38.928Z,20.40
2018-09-29T11:10:07.301Z,20.50
2018-09-29T11:12:35.541Z,20.50
2018-09-29T11:15:04.552Z,20.50
2018-09-29T11:17:32.809Z,20.50
2018-09-29T11:20:01.983Z,20.60
2018-09-29T11:22:30.232Z,20.60
2018-09-29T11:24:58.548Z,20.70
2018-09-29T11:27:26.946Z,20.70
2018-09-29T11:29:55.971Z,20.80
2018-09-29T11:32:24.259Z,20.80
2018-09-29T11:34:52.515Z,21.00
2018-09-29T11:37:20.910Z,21.00
2018-09-29T11:39:49.985Z,21.10
2018-09-29T11:42:18.279Z,21.10
2018-09-29T11:44:46.544Z,21.20
2018-09-29T11:47:14.833Z,21.10
2018-09-29T11:49:43.068Z,21.20
2018-09-29T11:52:11.300Z,21.30
2018-09-29T11:54:39.563Z,21.30
2018-09-29T11:57:07.839Z,21.40
2018-09-29T11:59:36.103Z,21.60
2018-09-29T12:02:05.139Z,21.70
2018-09-29T12:04:33.518Z,21.60
2018-09-29T12:07:02.583Z,21.50
2018-09-29T12:09:31.015Z,21.50
2018-09-29T12:11:59.286Z,21.50
2018-09-29T12:14:28.293Z,21.80
2018-09-29T12:16:56.581Z,21.80
2018-09-29T12:19:24.842Z,21.90
2018-09-29T12:21:53.110Z,22.00
2018-09-29T12:24:21.386Z,21.90
2018-09-29T12:26:49.639Z,22.00
2018-09-29T12:29:18.680Z,22.00
2018-09-29T12:31:46.932Z,22.00
2018-09-29T12:34:15.194Z,22.00
2018-09-29T12:36:44.277Z,21.90
2018-09-29T12:39:12.475Z,21.90
2018-09-29T12:41:40.813Z,21.80
2018-09-29T12:44:09.017Z,21.90
2018-09-29T12:46:37.279Z,21.90
2018-09-29T12:49:06.310Z,22.00
2018-09-29T12:51:34.630Z,22.00
2018-09-29T12:54:02.826Z,21.90
2018-09-29T12:56:31.850Z,22.20
2018-09-29T12:59:00.173Z,22.20
2018-09-29T13:01:28.366Z,22.20
2018-09-29T13:03:57.401Z,22.40
2018-09-29T13:06:25.692Z,22.40
2018-09-29T13:08:53.952Z,22.50
2018-09-29T13:11:22.246Z,22.50
2018-09-29T13:13:50.518Z,22.40
2018-09-29T13:16:18.860Z,22.40
2018-09-29T13:18:47.090Z,22.40
2018-09-29T13:21:15.382Z,22.30
2018-09-29T13:23:44.422Z,22.10
2018-09-29T13:26:12.686Z,22.10
2018-09-29T13:28:40.928Z,22.10
2018-09-29T13:31:09.950Z,22.30
2018-09-29T13:33:38.228Z,22.20
2018-09-29T13:36:06.492Z,22.30
2018-09-29T13:38:34.747Z,22.30
2018-09-29T13:41:03.783Z,22.50
2018-09-29T13:43:32.157Z,22.40
2018-09-29T13:46:00.508Z,22.40
2018-09-29T13:48:28.699Z,22.50
2018-09-29T13:50:56.983Z,22.50
2018-09-29T13:53:25.232Z,22.60
2018-09-29T13:55:53.490Z,22.70
2018-09-29T13:58:22.542Z,22.80
2018-09-29T14:00:50.805Z,22.80
2018-09-29T14:03:19.799Z,22.90
2018-09-29T14:05:48.047Z,23.00
2018-09-29T14:08:16.313Z,23.00
2018-09-29T14:10:44.565Z,23.10
2018-09-29T14:13:13.609Z,23.10
2018-09-29T14:15:41.861Z,23.00
2018-09-29T14:18:10.110Z,23.00
2018-09-29T14:20:39.185Z,22.90
2018-09-29T14:23:07.435Z,22.90
2018-09-29T14:25:37.545Z,22.90
2018-09-29T14:28:05.914Z,22.90
2018-09-29T14:30:34.159Z,22.80
2018-09-29T14:33:03.190Z,22.90
2018-09-29T14:35:31.538Z,22.80
2018-09-29T14:38:00.002Z,22.90
2018-09-29T14:40:29.019Z,23.00
2018-09-29T14:42:57.263Z,23.00
2018-09-29T14:45:27.230Z,22.90
2018-09-29T14:47:55.528Z,22.90
2018-09-29T14:50:23.791Z,22.90
2018-09-29T14:52:52.051Z,22.80
2018-09-29T14:55:20.273Z,22.70
2018-09-29T14:57:49.354Z,22.50
2018-09-29T15:00:17.635Z,22.50
2018-09-29T15:02:45.879Z,22.60
2018-09-29T15:05:14.965Z,22.50
2018-09-29T15:07:43.204Z,22.50
2018-09-29T15:10:11.472Z,22.50
2018-09-29T15:12:39.747Z,22.50
2018-09-29T15:15:07.973Z,22.40
2018-09-29T15:17:36.224Z,22.30
2018-09-29T15:20:04.496Z,22.30
2018-09-29T15:22:33.106Z,22.20
2018-09-29T15:25:01.354Z,22.10
2018-09-29T15:27:29.641Z,22.20
2018-09-29T15:29:57.911Z,22.20
2018-09-29T15:32:26.151Z,22.10
2018-09-29T15:34:55.177Z,21.80
2018-09-29T15:37:23.447Z,21.80
2018-09-29T15:39:51.733Z,21.70
2018-09-29T15:42:20.003Z,21.60
2018-09-29T15:44:49.215Z,21.50
2018-09-29T15:47:17.426Z,21.50
2018-09-29T15:49:45.698Z,21.40
2018-09-29T15:52:13.942Z,21.40
2018-09-29T15:54:42.983Z,21.30
2018-09-29T15:57:11.242Z,21.30
2018-09-29T15:59:39.764Z,21.30
2018-09-29T16:02:08.035Z,21.40
2018-09-29T16:04:36.318Z,21.30
2018-09-29T16:07:04.695Z,21.20
2018-09-29T16:09:33.785Z,21.20
2018-09-29T16:12:02.037Z,21.10
2018-09-29T16:14:31.791Z,20.90
2018-09-29T16:16:59.996Z,20.90
2018-09-29T16:19:28.362Z,20.90
2018-09-29T16:21:56.615Z,20.80
2018-09-29T16:24:24.904Z,20.80
2018-09-29T16:26:53.149Z,20.80
2018-09-29T16:29:21.415Z,20.70
2018-09-29T16:31:49.709Z,20.60
2018-09-29T16:34:17.977Z,20.50
2018-09-29T16:36:46.221Z,20.40
2018-09-29T16:39:15.297Z,20.30
2018-09-29T16:41:43.650Z,20.30
2018-09-29T16:44:11.931Z,20.20
2018-09-29T16:46:40.965Z,20.20
2018-09-29T16:49:09.987Z,20.10
2018-09-29T16:51:38.242Z,20.10
2018-09-29T16:54:06.534Z,20.00
2018-09-29T16:56:34.836Z,20.00
2018-09-29T16:59:03.113Z,19.90
2018-09-29T17:01:31.453Z,19.90
2018-09-29T17:03:59.805Z,19.70
2018-09-29T17:06:28.019Z,19.70
2018-09-29T17:08:56.666Z,19.60
2018-09-29T17:11:26.312Z,19.40
2018-09-29T17:13:54.547Z,19.40
2018-09-29T17:16:23.600Z,19.30
2018-09-29T17:18:51.861Z,19.30
2018-09-29T17:21:20.163Z,19.30
2018-09-29T17:23:49.183Z,19.20
2018-09-29T17:26:18.220Z,19.10
2018-09-29T17:28:46.487Z,19.10
2018-09-29T17:31:14.742Z,19.00
2018-09-29T17:33:42.994Z,18.90
2018-09-29T17:36:12.050Z,18.80
2018-09-29T17:38:40.328Z,18.80
2018-09-29T17:41:08.562Z,18.70
2018-09-29T17:43:36.825Z,18.70
2018-09-29T17:46:05.843Z,18.50
2018-09-29T17:48:34.111Z,18.50
2018-09-29T17:51:02.558Z,18.40
2018-09-29T17:53:30.874Z,18.40
2018-09-29T17:55:59.694Z,18.30
2018-09-29T17:58:29.474Z,18.30
2018-09-29T18:00:57.741Z,18.30
2018-09-29T18:03:25.986Z,18.20
2018-09-29T18:05:55.026Z,18.00
2018-09-29T18:08:23.322Z,18.00
2018-09-29T18:10:51.833Z,18.00
2018-09-29T18:13:20.136Z,17.90
2018-09-29T18:15:48.378Z,17.80
2018-09-29T18:18:16.614Z,17.80
2018-09-29T18:20:44.947Z,17.60
2018-09-29T18:23:14.323Z,17.50
2018-09-29T18:25:42.568Z,17.50
2018-09-29T18:28:11.545Z,17.30
2018-09-29T18:30:39.798Z,17.30
2018-09-29T18:33:08.828Z,17.20
2018-09-29T18:35:37.108Z,17.20
2018-09-29T18:38:05.674Z,17.20
2018-09-29T18:40:33.926Z,17.10
2018-09-29T18:43:02.172Z,17.10
2018-09-29T18:45:31.414Z,17.00
2018-09-29T18:47:59.678Z,16.90
2018-09-29T18:50:31.855Z,16.80
2018-09-29T18:53:00.130Z,16.80
2018-09-29T18:55:28.382Z,16.70
2018-09-29T18:57:57.410Z,16.70
2018-09-29T19:00:25.662Z,16.60
2018-09-29T19:02:53.924Z,16.60
2018-09-29T19:05:22.986Z,16.50
2018-09-29T19:07:51.242Z,16.50
2018-09-29T19:10:19.533Z,16.40
2018-09-29T19:12:47.854Z,16.20
2018-09-29T19:15:16.043Z,16.10
2018-09-29T19:17:44.430Z,15.90
2018-09-29T19:20:12.690Z,15.80
2018-09-29T19:22:40.938Z,15.80
2018-09-29T19:25:09.984Z,15.90
2018-09-29T19:27:38.231Z,15.90
2018-09-29T19:30:07.224Z,15.80
2018-09-29T19:32:35.666Z,15.80
2018-09-29T19:35:05.310Z,15.80
2018-09-29T19:37:33.578Z,15.70
2018-09-29T19:40:02.633Z,15.60
2018-09-29T19:42:30.908Z,15.60
2018-09-29T19:44:59.965Z,15.50
2018-09-29T19:47:28.797Z,15.50
2018-09-29T19:49:57.060Z,15.50
2018-09-29T19:52:25.359Z,15.50
2018-09-29T19:54:53.614Z,15.50
2018-09-29T19:57:21.884Z,15.40
2018-09-29T19:59:50.900Z,15.30
2018-09-29T20:02:20.239Z,15.30
2018-09-29T20:04:48.510Z,15.30
2018-09-29T20:07:16.792Z,15.30
2018-09-29T20:09:45.051Z,15.30
2018-09-29T20:12:13.470Z,15.30
2018-09-29T20:14:41.746Z,15.20
2018-09-29T20:17:10.745Z,15.10
2018-09-29T20:19:39.030Z,15.20
2018-09-29T20:22:07.291Z,15.20
2018-09-29T20:24:35.626Z,15.20
2018-09-29T20:27:03.968Z,15.20
2018-09-29T20:29:32.218Z,15.10
2018-09-29T20:32:01.978Z,15.10
2018-09-29T20:34:30.254Z,15.20
2018-09-29T20:37:00.268Z,15.10
2018-09-29T20:39:28.555Z,15.10
2018-09-29T20:41:57.650Z,15.00
2018-09-29T20:44:25.929Z,15.00
2018-09-29T20:46:54.197Z,15.00
2018-09-29T20:49:22.593Z,14.90
2018-09-29T20:51:50.799Z,14.90
2018-09-29T20:54:19.138Z,14.90
2018-09-29T20:56:47.394Z,14.90
2018-09-29T20:59:16.416Z,14.50
2018-09-29T21:01:44.728Z,14.50
2018-09-29T21:04:13.036Z,14.30
2018-09-29T21:06:41.302Z,14.20
2018-09-29T21:09:11.094Z,13.80
2018-09-29T21:11:43.015Z,13.80
2018-09-29T21:14:22.940Z,13.70
2018-09-29T21:16:54.135Z,13.70
2018-09-29T21:19:23.993Z,13.70
2018-09-29T21:21:52.321Z,13.70
2018-09-29T21:24:20.563Z,13.80
2018-09-29T21:26:48.814Z,13.80
2018-09-29T21:29:17.840Z,13.70
2018-09-29T21:31:46.088Z,13.60
2018-09-29T21:34:14.388Z,13.60
2018-09-29T21:36:43.493Z,13.60
2018-09-29T21:39:11.749Z,13.60
2018-09-29T21:41:40.027Z,13.40
2018-09-29T21:44:09.069Z,13.20
2018-09-29T21:46:38.109Z,13.10
2018-09-29T21:49:06.358Z,13.00
2018-09-29T21:51:34.681Z,13.10
2018-09-29T21:54:03.240Z,13.20
2018-09-29T21:56:31.486Z,13.30
2018-09-29T21:59:00.499Z,13.20
2018-09-29T22:01:28.753Z,13.20
2018-09-29T22:03:57.766Z,13.00
2018-09-29T22:06:26.039Z,13.00
2018-09-29T22:08:54.282Z,12.90
2018-09-29T22:11:23.298Z,13.00
2018-09-29T22:13:51.626Z,13.00
2018-09-29T22:16:20.164Z,12.90
2018-09-29T22:18:48.398Z,12.80
2018-09-29T22:21:16.662Z,12.70
2018-09-29T22:23:45.227Z,12.70
2018-09-29T22:26:14.044Z,12.70
2018-09-29T22:28:42.289Z,12.70
2018-09-29T22:31:11.306Z,12.70
2018-09-29T22:33:39.559Z,12.60
2018-09-29T22:36:08.653Z,12.50
2018-09-29T22:38:36.906Z,12.40
2018-09-29T22:41:05.164Z,12.40
2018-09-29T22:43:33.446Z,12.50
2018-09-29T22:46:01.678Z,12.50
2018-09-29T22:48:29.942Z,12.50
2018-09-29T22:50:58.206Z,12.40
2018-09-29T22:53:26.429Z,12.40
2018-09-29T22:55:54.716Z,12.30
2018-09-29T22:58:22.996Z,12.30
2018-09-29T23:00:51.270Z,12.30
2018-09-29T23:03:19.524Z,12.30
2018-09-29T23:05:47.778Z,12.20
2018-09-29T23:08:16.803Z,12.20
2018-09-29T23:10:45.057Z,12.20
2018-09-29T23:13:14.071Z,12.30
2018-09-29T23:15:43.260Z,12.30
2018-09-29T23:18:11.537Z,12.20
2018-09-29T23:20:40.538Z,12.40
2018-09-29T23:23:08.798Z,12.30
2018-09-29T23:25:38.057Z,12.40
2018-09-29T23:28:06.295Z,12.30
2018-09-29T23:30:34.541Z,12.40
2018-09-29T23:33:03.610Z,12.30
2018-09-29T23:35:31.852Z,12.40
2018-09-29T23:38:00.882Z,12.30
2018-09-29T23:40:29.111Z,12.30
2018-09-29T23:42:57.358Z,12.30
2018-09-29T23:45:25.616Z,12.40
2018-09-29T23:47:58.071Z,12.40
2018-09-29T23:50:27.921Z,12.30
2018-09-29T23:52:56.211Z,12.30
2018-09-29T23:55:24.530Z,12.30
2018-09-29T23:57:52.777Z,12.30
